createdAt,value
2018-07-10T00:00:02.950Z,5.90
2018-07-10T00:02:42.726Z,5.57
2018-07-10T00:05:32.891Z,5.63
2018-07-10T00:08:20.411Z,5.20
2018-07-10T00:11:56.961Z,7.43
2018-07-10T00:14:25.789Z,5.90
2018-07-10T00:16:54.681Z,6.67
2018-07-10T00:19:23.688Z,5.03
2018-07-10T00:21:52.768Z,5.77
2018-07-10T00:24:21.712Z,6.50
2018-07-10T00:26:50.582Z,5.40
2018-07-10T00:29:19.036Z,5.30
2018-07-10T00:31:47.937Z,6.13
2018-07-10T00:34:17.289Z,6.03
2018-07-10T00:36:46.236Z,5.43
2018-07-10T00:39:15.262Z,4.70
2018-07-10T00:41:44.156Z,5.10
2018-07-10T00:44:12.599Z,9.00
2018-07-10T00:46:41.941Z,6.80
2018-07-10T00:49:10.827Z,7.43
2018-07-10T00:51:40.968Z,6.53
2018-07-10T00:54:09.713Z,9.33
2018-07-10T00:56:38.908Z,4.70
2018-07-10T00:59:08.149Z,5.33
2018-07-10T01:01:37.183Z,5.20
2018-07-10T01:04:06.176Z,4.50
2018-07-10T01:06:35.368Z,4.70
2018-07-10T01:09:05.028Z,7.70
2018-07-10T01:11:33.965Z,5.63
2018-07-10T01:14:02.896Z,7.50
2018-07-10T01:16:35.908Z,7.27
2018-07-10T01:19:09.101Z,5.67
2018-07-10T01:21:39.466Z,6.20
2018-07-10T01:24:08.457Z,5.47
2018-07-10T01:26:39.448Z,6.97
2018-07-10T01:29:21.305Z,4.37
2018-07-10T01:31:52.247Z,6.40
2018-07-10T01:34:21.517Z,7.27
2018-07-10T01:36:50.777Z,5.50
2018-07-10T01:39:19.809Z,7.63
2018-07-10T01:41:48.804Z,5.30
2018-07-10T01:44:18.057Z,8.03
2018-07-10T01:46:47.071Z,5.30
2018-07-10T01:49:16.011Z,4.17
2018-07-10T01:51:45.023Z,4.93
2018-07-10T01:54:13.952Z,5.67
2018-07-10T01:56:42.848Z,5.77
2018-07-10T01:59:11.865Z,5.93
2018-07-10T02:01:40.836Z,6.80
2018-07-10T02:04:09.984Z,4.93
2018-07-10T02:06:39.451Z,4.60
2018-07-10T02:09:08.694Z,6.03
2018-07-10T02:11:37.648Z,6.10
2018-07-10T02:14:06.655Z,6.93
2018-07-10T02:16:35.555Z,5.77
2018-07-10T02:19:04.592Z,6.93
2018-07-10T02:21:33.593Z,5.27
2018-07-10T02:24:03.969Z,6.83
2018-07-10T02:26:32.958Z,5.20
2018-07-10T02:29:02.004Z,6.63
2018-07-10T02:31:30.501Z,5.83
2018-07-10T02:33:58.924Z,8.50
2018-07-10T02:36:27.914Z,9.23
2018-07-10T02:39:00.055Z,6.43
2018-07-10T02:41:28.524Z,5.57
2018-07-10T02:44:04.547Z,8.27
2018-07-10T02:46:34.781Z,7.80
2018-07-10T02:49:14.208Z,9.10
2018-07-10T02:52:03.231Z,8.57
2018-07-10T02:54:35.601Z,6.53
2018-07-10T02:57:06.092Z,6.60
2018-07-10T02:59:38.565Z,8.50
2018-07-10T03:02:25.959Z,6.63
2018-07-10T03:05:00.782Z,8.03
2018-07-10T03:07:31.089Z,8.60
2018-07-10T03:10:01.793Z,5.73
2018-07-10T03:12:33.637Z,7.27
2018-07-10T03:15:07.362Z,9.30
2018-07-10T03:17:36.352Z,6.43
2018-07-10T03:20:06.254Z,5.33
2018-07-10T03:22:35.384Z,6.60
2018-07-10T03:25:04.378Z,8.87
2018-07-10T03:27:33.810Z,7.93
2018-07-10T03:30:03.397Z,5.57
2018-07-10T03:32:32.536Z,6.40
2018-07-10T03:35:02.316Z,5.53
2018-07-10T03:37:31.268Z,6.73
2018-07-10T03:40:00.220Z,5.03
2018-07-10T03:42:29.209Z,6.07
2018-07-10T03:44:57.894Z,6.53
2018-07-10T03:47:27.884Z,4.37
2018-07-10T03:49:56.872Z,5.57
2018-07-10T03:52:28.416Z,9.80
2018-07-10T03:54:58.948Z,6.03
2018-07-10T03:57:28.052Z,7.57
2018-07-10T04:00:04.084Z,5.23
2018-07-10T04:02:33.136Z,4.97
2018-07-10T04:05:02.942Z,5.67
2018-07-10T04:07:33.076Z,5.67
2018-07-10T04:10:02.006Z,6.03
2018-07-10T04:12:31.756Z,4.47
2018-07-10T04:15:01.182Z,6.13
2018-07-10T04:17:37.041Z,8.90
2018-07-10T04:20:06.225Z,7.03
2018-07-10T04:22:35.257Z,6.40
2018-07-10T04:25:04.478Z,7.50
2018-07-10T04:28:40.774Z,6.30
2018-07-10T04:33:20.889Z,8.77
2018-07-10T04:35:49.938Z,4.60
2018-07-10T04:38:18.961Z,5.30
2018-07-10T04:40:47.951Z,6.43
2018-07-10T04:43:19.842Z,4.50
2018-07-10T04:45:51.066Z,6.10
2018-07-10T04:48:24.972Z,4.57
2018-07-10T04:50:57.086Z,7.37
2018-07-10T04:53:34.734Z,3.43
2018-07-10T04:56:03.929Z,5.73
2018-07-10T04:58:33.248Z,4.97
2018-07-10T05:01:03.006Z,5.80
2018-07-10T05:03:32.432Z,6.60
2018-07-10T05:06:05.360Z,6.30
2018-07-10T05:08:34.425Z,3.40
2018-07-10T05:11:03.396Z,5.07
2018-07-10T05:13:32.374Z,6.83
2018-07-10T05:16:07.210Z,5.80
2018-07-10T05:18:36.536Z,6.57
2018-07-10T05:21:10.970Z,5.30
2018-07-10T05:23:40.000Z,5.03
2018-07-10T05:26:12.977Z,3.90
2018-07-10T05:28:46.491Z,4.43
2018-07-10T05:31:16.372Z,4.90
2018-07-10T05:33:49.121Z,3.90
2018-07-10T05:36:19.525Z,4.67
2018-07-10T05:38:50.668Z,4.57
2018-07-10T05:41:21.672Z,3.67
2018-07-10T05:43:51.558Z,3.83
2018-07-10T05:46:22.731Z,4.30
2018-07-10T05:48:58.801Z,3.27
2018-07-10T05:51:58.412Z,3.93
2018-07-10T05:54:27.600Z,3.70
2018-07-10T05:56:56.682Z,3.63
2018-07-10T05:59:25.629Z,4.97
2018-07-10T06:01:55.617Z,3.73
2018-07-10T06:04:24.082Z,5.07
2018-07-10T06:06:53.349Z,5.00
2018-07-10T06:09:22.284Z,4.07
2018-07-10T06:11:51.405Z,3.80
2018-07-10T06:14:20.324Z,5.10
2018-07-10T06:16:51.408Z,4.40
2018-07-10T06:19:20.426Z,5.07
2018-07-10T06:21:50.448Z,5.53
2018-07-10T06:24:27.261Z,7.47
2018-07-10T06:27:04.092Z,5.83
2018-07-10T06:30:02.601Z,6.63
2018-07-10T06:32:42.097Z,7.57
2018-07-10T06:35:11.102Z,5.80
2018-07-10T06:37:42.884Z,5.57
2018-07-10T06:40:12.003Z,6.70
2018-07-10T06:44:52.965Z,5.57
2018-07-10T06:47:29.095Z,5.53
2018-07-10T06:50:00.195Z,4.80
2018-07-10T06:52:29.312Z,4.87
2018-07-10T06:55:04.589Z,4.17
2018-07-10T06:57:35.050Z,4.37
2018-07-10T07:00:07.124Z,4.93
2018-07-10T07:02:37.211Z,5.27
2018-07-10T07:05:06.818Z,3.50
2018-07-10T07:07:37.066Z,6.53
2018-07-10T07:10:07.187Z,4.77
2018-07-10T07:12:36.717Z,2.93
2018-07-10T07:15:07.689Z,3.10
2018-07-10T07:17:36.906Z,5.97
2018-07-10T07:20:06.084Z,3.33
2018-07-10T07:22:35.045Z,2.80
2018-07-10T07:25:04.377Z,4.97
2018-07-10T07:27:33.523Z,3.10
2018-07-10T07:30:02.668Z,3.33
2018-07-10T07:32:31.929Z,3.00
2018-07-10T07:35:00.966Z,2.73
2018-07-10T07:37:30.240Z,2.93
2018-07-10T07:39:59.281Z,2.63
2018-07-10T07:42:27.820Z,3.73
2018-07-10T07:44:56.981Z,2.90
2018-07-10T07:47:29.001Z,3.33
2018-07-10T07:49:58.053Z,3.40
2018-07-10T07:52:29.182Z,3.60
2018-07-10T07:54:59.365Z,2.90
2018-07-10T07:57:28.313Z,2.67
2018-07-10T07:59:57.944Z,2.70
2018-07-10T08:02:26.868Z,4.03
2018-07-10T08:04:55.864Z,6.90
2018-07-10T08:07:25.572Z,3.43
2018-07-10T08:09:56.173Z,6.90
2018-07-10T08:12:26.238Z,4.40
2018-07-10T08:14:55.437Z,3.40
2018-07-10T08:17:25.803Z,5.33
2018-07-10T08:19:54.844Z,4.40
2018-07-10T08:22:24.665Z,3.40
2018-07-10T08:24:53.777Z,4.27
2018-07-10T08:27:23.562Z,5.33
2018-07-10T08:29:52.560Z,3.67
2018-07-10T08:32:21.549Z,3.57
2018-07-10T08:34:50.516Z,3.80
2018-07-10T08:37:19.507Z,4.00
2018-07-10T08:39:48.531Z,5.67
2018-07-10T08:42:17.581Z,4.60
2018-07-10T08:44:46.595Z,4.53
2018-07-10T08:47:15.647Z,4.33
2018-07-10T08:49:44.726Z,5.00
2018-07-10T08:52:14.158Z,4.20
2018-07-10T08:54:43.575Z,4.13
2018-07-10T08:57:13.629Z,4.17
2018-07-10T08:59:42.204Z,5.07
2018-07-10T09:02:11.145Z,4.47
2018-07-10T09:04:40.869Z,4.57
2018-07-10T09:07:09.799Z,4.37
2018-07-10T09:09:38.232Z,6.00
2018-07-10T09:12:07.189Z,4.93
2018-07-10T09:14:36.069Z,4.27
2018-07-10T09:17:05.008Z,4.03
2018-07-10T09:19:34.013Z,4.03
2018-07-10T09:22:09.636Z,4.93
2018-07-10T09:24:42.169Z,4.20
2018-07-10T09:27:12.229Z,4.80
2018-07-10T09:29:41.257Z,5.40
2018-07-10T09:32:10.416Z,4.50
2018-07-10T09:34:39.402Z,4.10
2018-07-10T09:37:14.161Z,4.03
2018-07-10T09:39:43.168Z,4.40
2018-07-10T09:42:12.725Z,4.43
2018-07-10T09:44:42.385Z,5.70
2018-07-10T09:47:11.377Z,4.70
2018-07-10T09:49:40.421Z,5.53
2018-07-10T09:52:09.461Z,5.73
2018-07-10T09:54:38.488Z,4.90
2018-07-10T09:57:07.492Z,4.47
2018-07-10T09:59:36.491Z,3.83
2018-07-10T10:02:38.797Z,4.10
2018-07-10T10:05:08.177Z,4.30
2018-07-10T10:07:37.148Z,4.13
2018-07-10T10:10:06.065Z,4.30
2018-07-10T10:12:35.000Z,3.80
2018-07-10T10:15:04.013Z,5.27
2018-07-10T10:17:33.116Z,4.97
2018-07-10T10:20:02.194Z,3.87
2018-07-10T10:22:32.432Z,3.77
2018-07-10T10:25:03.012Z,4.37
2018-07-10T10:27:32.612Z,4.13
2018-07-10T10:30:02.736Z,3.53
2018-07-10T10:32:32.022Z,4.87
2018-07-10T10:35:00.948Z,4.03
2018-07-10T10:37:29.903Z,4.27
2018-07-10T10:40:00.421Z,4.70
2018-07-10T10:42:30.290Z,4.87
2018-07-10T10:45:01.349Z,3.97
2018-07-10T10:47:31.965Z,7.23
2018-07-10T10:50:01.969Z,3.83
2018-07-10T10:52:30.944Z,3.60
2018-07-10T10:55:00.008Z,4.27
2018-07-10T10:57:30.572Z,5.47
2018-07-10T10:59:59.507Z,4.87
2018-07-10T11:02:28.569Z,4.77
2018-07-10T11:04:57.470Z,7.03
2018-07-10T11:07:26.664Z,4.13
2018-07-10T11:09:55.621Z,4.00
2018-07-10T11:12:24.585Z,4.07
2018-07-10T11:14:53.596Z,4.17
2018-07-10T11:17:29.854Z,5.47
2018-07-10T11:20:13.594Z,4.00
2018-07-10T11:22:52.528Z,3.97
2018-07-10T11:25:22.472Z,3.10
2018-07-10T11:28:07.099Z,4.00
2018-07-10T11:30:36.358Z,6.70
2018-07-10T11:33:06.427Z,4.07
2018-07-10T11:35:36.203Z,3.40
2018-07-10T11:38:08.431Z,6.50
2018-07-10T11:40:38.752Z,3.77
2018-07-10T11:43:09.048Z,4.03
2018-07-10T11:45:38.335Z,5.60
2018-07-10T11:48:06.791Z,3.37
2018-07-10T11:53:10.424Z,3.23
2018-07-10T11:55:39.451Z,3.20
2018-07-10T11:58:08.957Z,3.60
2018-07-10T12:03:23.523Z,3.40
2018-07-10T12:05:54.204Z,3.97
2018-07-10T12:08:23.176Z,3.00
2018-07-10T12:11:18.665Z,2.43
2018-07-10T12:13:47.981Z,3.93
2018-07-10T12:16:16.953Z,3.40
2018-07-10T12:18:45.988Z,3.10
2018-07-10T12:21:16.897Z,4.63
2018-07-10T12:23:46.132Z,3.93
2018-07-10T12:26:15.169Z,2.87
2018-07-10T12:28:44.215Z,3.50
2018-07-10T12:31:13.203Z,3.80
2018-07-10T12:33:42.141Z,3.90
2018-07-10T12:36:10.975Z,3.30
2018-07-10T12:38:40.624Z,3.73
2018-07-10T12:41:09.593Z,3.67
2018-07-10T12:43:38.684Z,4.57
2018-07-10T12:46:07.919Z,3.43
2018-07-10T12:48:36.876Z,3.67
2018-07-10T12:51:05.778Z,6.03
2018-07-10T12:53:34.795Z,4.87
2018-07-10T12:56:03.804Z,4.00
2018-07-10T12:58:34.906Z,3.27
2018-07-10T13:01:03.941Z,2.77
2018-07-10T13:03:32.989Z,3.53
2018-07-10T13:06:02.025Z,2.90
2018-07-10T13:08:31.009Z,3.07
2018-07-10T13:11:00.117Z,5.63
2018-07-10T13:13:29.688Z,2.47
2018-07-10T13:15:58.764Z,2.60
2018-07-10T13:18:29.803Z,4.83
2018-07-10T13:20:58.814Z,2.67
2018-07-10T13:23:27.813Z,4.70
2018-07-10T13:25:56.953Z,3.23
2018-07-10T13:28:25.637Z,5.10
2018-07-10T13:30:54.649Z,3.27
2018-07-10T13:33:23.647Z,2.50
2018-07-10T13:35:52.703Z,5.20
2018-07-10T13:38:22.548Z,2.40
2018-07-10T13:40:53.688Z,2.65
2018-07-10T13:43:22.682Z,2.75
2018-07-10T13:45:51.213Z,3.02
2018-07-10T13:48:20.268Z,4.00
2018-07-10T13:50:49.281Z,3.77
2018-07-10T13:53:18.217Z,3.92
2018-07-10T13:55:47.165Z,3.52
2018-07-10T13:58:22.526Z,4.20
2018-07-10T14:00:57.581Z,3.83
2018-07-10T14:03:26.508Z,2.92
2018-07-10T14:05:55.525Z,3.50
2018-07-10T14:08:24.443Z,4.33
2018-07-10T14:10:53.439Z,2.92
2018-07-10T14:13:22.443Z,3.17
2018-07-10T14:15:51.432Z,2.47
2018-07-10T14:18:20.419Z,3.37
2018-07-10T14:20:54.957Z,2.20
2018-07-10T14:23:24.006Z,3.75
2018-07-10T14:25:53.266Z,3.83
2018-07-10T14:28:22.353Z,2.87
2018-07-10T14:30:51.347Z,3.20
2018-07-10T14:33:20.832Z,3.62
2018-07-10T14:35:50.359Z,3.33
2018-07-10T14:38:24.633Z,2.83
2018-07-10T14:40:54.294Z,6.05
2018-07-10T14:43:32.958Z,3.27
2018-07-10T14:46:11.865Z,2.50
2018-07-10T14:48:49.853Z,3.15
2018-07-10T14:51:25.291Z,2.55
2018-07-10T14:53:54.272Z,2.37
2018-07-10T14:56:23.283Z,2.62
2018-07-10T14:58:52.331Z,3.00
2018-07-10T15:01:22.374Z,2.52
2018-07-10T15:03:51.249Z,2.33
2018-07-10T15:06:20.272Z,2.75
2018-07-10T15:08:49.168Z,4.67
2018-07-10T15:11:18.485Z,3.87
2018-07-10T15:14:01.862Z,3.95
2018-07-10T15:16:35.969Z,2.92
2018-07-10T15:19:05.492Z,3.10
2018-07-10T15:21:35.756Z,3.15
2018-07-10T15:24:06.647Z,4.03
2018-07-10T15:26:36.001Z,2.37
2018-07-10T15:29:05.029Z,2.87
2018-07-10T15:31:34.042Z,2.65
2018-07-10T15:34:03.010Z,2.40
2018-07-10T15:36:31.932Z,2.70
2018-07-10T15:39:01.133Z,2.65
2018-07-10T15:41:31.473Z,3.27
2018-07-10T15:44:00.376Z,5.20
2018-07-10T15:46:29.918Z,3.33
2018-07-10T15:48:58.786Z,2.92
2018-07-10T15:51:27.759Z,2.72
2018-07-10T15:53:56.754Z,4.30
2018-07-10T15:56:25.686Z,4.30
2018-07-10T15:58:54.670Z,2.92
2018-07-10T16:01:24.502Z,3.47
2018-07-10T16:03:53.973Z,3.20
2018-07-10T16:06:23.398Z,2.60
2018-07-10T16:08:53.277Z,3.12
2018-07-10T16:11:22.269Z,4.58
2018-07-10T16:13:51.444Z,2.47
2018-07-10T16:16:20.568Z,4.40
2018-07-10T16:18:55.459Z,4.12
2018-07-10T16:21:30.795Z,3.47
2018-07-10T16:24:01.967Z,3.67
2018-07-10T16:26:30.963Z,3.55
2018-07-10T16:28:59.984Z,3.50
2018-07-10T16:31:29.095Z,2.80
2018-07-10T16:33:57.988Z,2.72
2018-07-10T16:36:27.017Z,2.87
2018-07-10T16:38:56.112Z,6.17
2018-07-10T16:41:30.263Z,4.25
2018-07-10T16:44:04.204Z,3.47
2018-07-10T16:46:33.282Z,2.58
2018-07-10T16:49:15.741Z,2.98
2018-07-10T16:51:49.481Z,4.00
2018-07-10T16:54:18.898Z,2.30
2018-07-10T16:56:47.860Z,2.65
2018-07-10T16:59:17.228Z,3.15
2018-07-10T17:01:46.299Z,3.30
2018-07-10T17:04:15.872Z,3.20
2018-07-10T17:06:44.703Z,4.12
2018-07-10T17:09:13.608Z,2.20
2018-07-10T17:11:42.509Z,2.98
2018-07-10T17:14:11.528Z,2.52
2018-07-10T17:16:40.497Z,2.30
2018-07-10T17:19:09.515Z,2.15
2018-07-10T17:21:38.577Z,3.37
2018-07-10T17:24:07.559Z,2.47
2018-07-10T17:26:36.566Z,3.15
2018-07-10T17:29:09.970Z,3.70
2018-07-10T17:31:39.113Z,2.40
2018-07-10T17:34:08.209Z,2.37
2018-07-10T17:36:37.192Z,2.42
2018-07-10T17:39:06.853Z,2.10
2018-07-10T17:41:36.835Z,3.10
2018-07-10T17:44:08.528Z,2.45
2018-07-10T17:46:37.880Z,2.70
2018-07-10T17:49:06.784Z,2.02
2018-07-10T17:51:35.777Z,2.20
2018-07-10T17:54:05.079Z,3.08
2018-07-10T17:56:34.056Z,2.80
2018-07-10T17:59:05.744Z,3.33
2018-07-10T18:01:35.802Z,2.40
2018-07-10T18:04:04.545Z,2.45
2018-07-10T18:06:33.460Z,3.47
2018-07-10T18:09:02.466Z,6.23
2018-07-10T18:11:31.491Z,2.10
2018-07-10T18:14:00.676Z,3.17
2018-07-10T18:16:35.705Z,2.00
2018-07-10T18:19:05.343Z,4.77
2018-07-10T18:21:35.486Z,2.20
2018-07-10T18:24:04.695Z,2.00
2018-07-10T18:26:33.748Z,1.83
2018-07-10T18:29:02.644Z,3.00
2018-07-10T18:31:31.924Z,2.77
2018-07-10T18:34:00.861Z,4.37
2018-07-10T18:36:29.858Z,2.67
2018-07-10T18:38:58.907Z,2.20
2018-07-10T18:41:27.957Z,2.00
2018-07-10T18:43:57.821Z,3.00
2018-07-10T18:46:26.870Z,2.00
2018-07-10T18:48:55.857Z,2.77
2018-07-10T18:51:24.934Z,4.70
2018-07-10T18:53:53.520Z,1.90
2018-07-10T18:56:22.815Z,2.83
2018-07-10T18:59:00.169Z,2.13
2018-07-10T19:02:12.333Z,3.13
2018-07-10T19:05:11.703Z,2.40
2018-07-10T19:07:41.772Z,2.52
2018-07-10T19:10:11.027Z,4.10
2018-07-10T19:12:40.961Z,3.80
2018-07-10T19:15:10.577Z,2.67
2018-07-10T19:17:40.046Z,2.40
2018-07-10T19:20:09.613Z,3.10
2018-07-10T19:22:49.663Z,3.45
2018-07-10T19:25:18.944Z,2.45
2018-07-10T19:27:51.364Z,2.60
2018-07-10T19:30:21.639Z,2.52
2018-07-10T19:32:50.681Z,2.60
2018-07-10T19:35:19.656Z,2.67
2018-07-10T19:37:48.667Z,2.40
2018-07-10T19:40:18.635Z,2.57
2018-07-10T19:42:49.809Z,2.70
2018-07-10T19:45:19.597Z,3.23
2018-07-10T19:47:49.077Z,3.17
2018-07-10T19:50:19.789Z,2.60
2018-07-10T19:52:54.757Z,3.37
2018-07-10T19:55:25.917Z,2.37
2018-07-10T19:58:03.566Z,2.70
2018-07-10T20:02:42.849Z,2.33
2018-07-10T20:05:15.237Z,2.80
2018-07-10T20:07:50.265Z,2.90
2018-07-10T20:10:39.643Z,2.80
2018-07-10T20:13:26.945Z,2.90
2018-07-10T20:16:05.918Z,3.23
2018-07-10T20:18:41.649Z,3.30
2018-07-10T20:21:41.113Z,2.87
2018-07-10T20:24:17.386Z,2.97
2018-07-10T20:28:00.121Z,4.27
2018-07-10T20:30:36.303Z,3.83
2018-07-10T20:33:17.388Z,3.50
2018-07-10T20:35:49.844Z,3.50
2018-07-10T20:38:19.616Z,2.90
2018-07-10T20:40:48.867Z,3.57
2018-07-10T20:43:21.208Z,3.80
2018-07-10T20:45:54.317Z,3.03
2018-07-10T20:48:58.325Z,3.07
2018-07-10T20:51:39.251Z,4.60
2018-07-10T20:55:11.950Z,2.80
2018-07-10T20:58:15.668Z,2.97
2018-07-10T21:00:55.993Z,4.40
2018-07-10T21:03:34.001Z,2.77
2018-07-10T21:06:17.737Z,3.77
2018-07-10T21:09:18.870Z,4.20
2018-07-10T21:12:11.402Z,3.20
2018-07-10T21:15:18.606Z,4.77
2018-07-10T21:18:06.134Z,3.97
2018-07-10T21:20:47.801Z,3.43
2018-07-10T21:24:01.941Z,4.07
2018-07-10T21:26:40.548Z,4.07
2018-07-10T21:29:15.605Z,2.97
2018-07-10T21:31:50.570Z,2.93
2018-07-10T21:34:25.721Z,2.47
2018-07-10T21:39:09.075Z,3.07
2018-07-10T21:41:43.430Z,3.17
2018-07-10T21:44:38.092Z,2.73
2018-07-10T21:47:21.392Z,4.07
2018-07-10T21:49:54.124Z,2.60
2018-07-10T21:52:23.519Z,3.93
2018-07-10T21:54:51.983Z,3.03
2018-07-10T21:57:31.611Z,2.27
2018-07-10T22:00:01.054Z,2.20
2018-07-10T22:02:29.698Z,2.90
2018-07-10T22:04:59.172Z,2.30
2018-07-10T22:07:29.465Z,2.60
2018-07-10T22:10:06.917Z,2.00
2018-07-10T22:12:40.044Z,1.80
2018-07-10T22:15:09.014Z,2.47
2018-07-10T22:17:39.251Z,2.07
2018-07-10T22:20:08.864Z,2.13
2018-07-10T22:22:37.929Z,1.80
2018-07-10T22:25:08.458Z,1.93
2018-07-10T22:27:41.045Z,2.00
2018-07-10T22:30:18.044Z,1.50
2018-07-10T22:32:52.239Z,1.73
2018-07-10T22:35:21.246Z,1.90
2018-07-10T22:37:50.257Z,2.50
2018-07-10T22:40:19.449Z,2.37
2018-07-10T22:42:48.480Z,1.90
2018-07-10T22:45:19.188Z,1.90
2018-07-10T22:47:48.252Z,2.03
2018-07-10T22:50:21.545Z,2.20
2018-07-10T22:52:56.965Z,2.30
2018-07-10T22:55:29.829Z,1.80
2018-07-10T22:58:02.201Z,2.40
2018-07-10T23:00:33.228Z,2.00
2018-07-10T23:03:23.225Z,2.23
2018-07-10T23:05:53.123Z,2.40
2018-07-10T23:08:25.417Z,1.90
2018-07-10T23:10:54.356Z,2.97
2018-07-10T23:13:28.136Z,2.40
2018-07-10T23:15:57.118Z,2.63
2018-07-10T23:18:26.186Z,2.30
2018-07-10T23:20:55.233Z,1.87
2018-07-10T23:23:26.721Z,2.20
2018-07-10T23:25:55.691Z,2.27
2018-07-10T23:28:26.280Z,2.17
2018-07-10T23:30:55.276Z,2.83
2018-07-10T23:33:25.928Z,2.17
2018-07-10T23:35:58.773Z,2.10
2018-07-10T23:38:39.642Z,2.57
2018-07-10T23:41:13.513Z,2.20
2018-07-10T23:43:45.781Z,2.27
2018-07-10T23:46:21.545Z,2.20
2018-07-10T23:48:53.213Z,2.00
2018-07-10T23:51:22.240Z,2.00
2018-07-10T23:53:53.312Z,2.00
2018-07-10T23:56:22.733Z,1.67
2018-07-10T23:58:52.218Z,1.57
